createdAt,value
2023-02-12T10:58:02.294Z,9020.00
2023-02-12T10:59:02.170Z,9816.00
2023-02-12T11:00:02.088Z,9388.00
2023-02-12T11:01:04.631Z,9252.00
2023-02-12T11:02:04.969Z,9508.00
2023-02-12T11:03:01.849Z,9628.00
2023-02-12T11:04:01.770Z,9288.00
2023-02-12T11:05:01.760Z,9304.00
2023-02-12T11:06:01.607Z,9508.00
2023-02-12T11:07:01.531Z,9836.00
2023-02-12T11:08:01.454Z,10076.00
2023-02-12T11:09:01.371Z,11408.00
2023-02-12T11:10:01.337Z,19680.00
2023-02-12T11:11:01.214Z,14072.00
2023-02-12T11:12:01.129Z,18304.00
2023-02-12T11:13:01.210Z,14456.00
2023-02-12T11:14:01.012Z,16160.00
2023-02-12T11:15:00.888Z,12896.00
2023-02-12T11:16:01.178Z,12884.00
2023-02-12T11:17:00.728Z,14948.00
2023-02-12T11:18:00.651Z,11476.00
2023-02-12T11:19:00.571Z,10956.00
2023-02-12T11:20:00.505Z,12016.00
2023-02-12T11:21:00.416Z,12156.00
2023-02-12T11:22:00.335Z,11596.00
2023-02-12T11:23:00.261Z,12628.00
2023-02-12T11:24:00.177Z,15080.00
2023-02-12T11:25:00.111Z,12940.00
2023-02-12T11:26:00.028Z,13196.00
2023-02-12T11:26:59.942Z,12968.00
2023-02-12T11:27:59.989Z,11872.00
2023-02-12T11:29:00.062Z,11140.00
2023-02-12T11:29:59.733Z,10968.00
2023-02-12T11:30:59.768Z,10696.00
2023-02-12T11:31:59.570Z,10380.00
2023-02-12T11:32:59.474Z,10324.00
2023-02-12T11:33:59.394Z,10116.00
2023-02-12T11:34:59.317Z,9704.00
2023-02-12T11:35:59.245Z,9240.00
2023-02-12T11:36:59.171Z,9152.00
2023-02-12T11:37:59.092Z,8736.00
2023-02-12T11:38:59.017Z,8972.00
2023-02-12T11:39:58.925Z,8928.00
2023-02-12T11:40:59.245Z,9376.00
2023-02-12T11:41:58.766Z,8576.00
2023-02-12T11:42:58.693Z,8040.00
2023-02-12T11:43:58.612Z,7920.00
2023-02-12T11:44:58.537Z,8412.00
2023-02-12T11:45:58.926Z,8520.00
2023-02-12T11:46:58.514Z,8188.00
2023-02-12T11:47:58.299Z,8584.00
2023-02-12T11:48:58.227Z,7308.00
2023-02-12T11:49:58.146Z,6292.00
2023-02-12T11:50:58.064Z,6604.00
2023-02-12T11:51:57.989Z,7292.00
2023-02-12T11:52:57.908Z,6208.00
2023-02-12T11:53:57.831Z,5184.00
2023-02-12T11:54:57.770Z,4716.00
2023-02-12T11:55:57.669Z,4624.00
2023-02-12T11:56:57.845Z,4932.00
2023-02-12T11:57:57.510Z,5264.00
2023-02-12T11:58:57.431Z,5384.00
2023-02-12T11:59:57.351Z,5416.00
2023-02-12T12:07:44.263Z,7768.00
2023-02-12T12:08:44.171Z,6160.00
2023-02-12T12:09:44.081Z,6616.00
2023-02-12T12:10:44.006Z,7184.00
2023-02-12T12:11:43.926Z,6576.00
2023-02-12T12:12:43.842Z,6028.00
2023-02-12T12:13:43.761Z,5496.00
2023-02-12T12:14:43.685Z,6068.00
2023-02-12T12:15:43.602Z,5360.00
2023-02-12T12:16:43.748Z,7156.00
2023-02-12T12:17:43.692Z,23232.00
2023-02-12T12:18:43.365Z,8176.00
2023-02-12T12:19:43.284Z,12232.00
2023-02-12T12:20:43.205Z,7980.00
2023-02-12T12:21:43.124Z,16640.00
2023-02-12T12:22:43.049Z,33312.00
2023-02-12T12:23:42.995Z,32832.00
2023-02-12T12:24:42.890Z,31488.00
2023-02-12T12:25:42.809Z,31968.00
2023-02-12T12:26:42.734Z,30560.00
2023-02-12T12:27:42.657Z,31136.00
2023-02-12T12:28:42.705Z,26048.00
2023-02-12T12:29:42.704Z,25856.00
2023-02-12T12:30:42.447Z,28736.00
2023-02-12T12:31:42.480Z,31808.00
2023-02-12T12:32:42.283Z,26336.00
2023-02-12T12:33:42.204Z,32032.00
2023-02-12T12:34:42.132Z,31136.00
2023-02-12T12:35:42.057Z,29920.00
2023-02-12T12:36:41.984Z,29888.00
2023-02-12T12:37:41.911Z,29152.00
2023-02-12T12:38:41.841Z,26176.00
2023-02-12T12:39:41.790Z,23840.00
2023-02-12T12:40:41.699Z,25952.00
2023-02-12T12:41:41.624Z,29344.00
2023-02-12T12:42:41.554Z,30080.00
2023-02-12T13:13:37.864Z,12664.00
2023-02-12T13:14:37.775Z,8744.00
2023-02-12T13:15:37.687Z,7156.00
2023-02-12T13:16:37.632Z,6404.00
2023-02-12T13:17:37.675Z,5496.00
2023-02-12T13:18:37.519Z,6296.00
2023-02-12T13:19:37.394Z,8180.00
2023-02-12T13:20:37.320Z,6468.00
2023-02-12T13:21:37.244Z,5780.00
2023-02-12T13:22:37.170Z,6956.00
2023-02-12T13:23:37.095Z,6188.00
2023-02-12T13:24:37.025Z,7008.00
2023-02-12T13:25:36.955Z,6420.00
2023-02-12T13:49:55.441Z,7820.00
2023-02-12T13:50:59.459Z,7664.00
2023-02-12T13:51:55.271Z,7308.00
2023-02-12T13:52:55.188Z,7344.00
2023-02-12T13:53:55.118Z,7168.00
2023-02-12T13:54:55.033Z,6860.00
2023-02-12T13:55:55.250Z,6768.00
2023-02-12T13:56:54.894Z,7120.00
2023-02-12T13:57:54.797Z,7420.00
2023-02-12T13:58:54.724Z,7576.00
2023-02-12T13:59:54.647Z,7756.00
2023-02-12T14:00:54.814Z,7704.00
2023-02-12T14:01:54.794Z,7504.00
2023-02-12T14:02:54.418Z,7364.00
2023-02-12T14:03:54.381Z,7172.00
2023-02-12T14:04:54.253Z,7088.00
2023-02-12T14:05:55.008Z,6948.00
2023-02-12T14:07:36.577Z,6772.00
2023-02-12T14:08:36.504Z,6656.00
2023-02-12T14:09:36.420Z,6320.00
2023-02-12T14:10:36.342Z,6168.00
2023-02-12T14:11:36.263Z,6028.00
2023-02-12T14:12:36.184Z,5956.00
2023-02-12T14:13:36.104Z,5792.00
2023-02-12T14:14:36.028Z,5640.00
2023-02-12T14:15:36.066Z,5916.00
2023-02-12T14:16:35.872Z,6052.00
2023-02-12T14:17:35.791Z,6088.00
2023-02-12T14:18:35.727Z,6012.00
2023-02-12T14:19:35.630Z,6216.00
2023-02-12T14:20:35.554Z,6212.00
2023-02-12T14:21:35.500Z,5916.00
2023-02-12T14:22:35.400Z,5620.00
2023-02-12T14:23:35.323Z,5476.00
2023-02-12T14:24:35.239Z,5284.00
2023-02-12T14:25:35.169Z,5260.00
2023-02-12T14:26:35.081Z,5280.00
2023-02-12T14:27:35.000Z,5204.00
2023-02-12T14:28:34.936Z,5128.00
2023-02-12T14:29:34.842Z,5040.00
2023-02-12T14:30:34.767Z,4972.00
2023-02-12T14:31:34.870Z,4876.00
2023-02-12T14:32:34.604Z,4820.00
2023-02-12T14:33:34.728Z,4880.00
2023-02-12T14:34:34.446Z,4820.00
2023-02-12T14:35:34.416Z,4736.00
2023-02-12T14:36:34.688Z,4624.00
2023-02-12T14:37:37.190Z,4580.00
2023-02-12T14:38:45.767Z,4560.00
2023-02-12T14:39:34.052Z,4528.00
2023-02-12T14:40:33.973Z,4520.00
2023-02-12T14:41:33.893Z,4580.00
2023-02-12T14:42:33.815Z,4620.00
2023-02-12T14:43:33.787Z,4528.00
2023-02-12T14:44:33.658Z,4444.00
2023-02-12T14:45:33.574Z,4376.00
2023-02-12T14:46:33.549Z,4316.00
2023-02-12T14:47:33.415Z,4260.00
2023-02-12T14:48:33.338Z,4208.00
2023-02-12T14:49:33.256Z,4184.00
2023-02-12T14:50:33.173Z,4144.00
2023-02-12T14:51:33.099Z,4112.00
2023-02-12T14:52:33.017Z,4084.00
2023-02-12T14:53:32.963Z,4052.00
2023-02-12T14:54:32.860Z,4036.00
2023-02-12T14:55:32.778Z,3996.00
2023-02-12T14:56:32.701Z,3944.00
2023-02-12T14:57:32.618Z,3900.00
2023-02-12T14:58:32.539Z,3856.00
2023-02-12T14:59:32.810Z,3784.00
2023-02-12T15:00:32.380Z,3740.00
2023-02-12T15:01:32.347Z,3680.00
2023-02-12T15:02:32.220Z,3612.00
2023-02-12T15:03:32.139Z,3560.00
2023-02-12T15:04:32.075Z,3520.00
2023-02-12T15:05:31.979Z,3492.00
2023-02-12T15:06:31.901Z,3444.00
2023-02-12T15:07:31.839Z,3392.00
2023-02-12T15:08:31.740Z,3340.00
2023-02-12T15:09:31.688Z,3276.00
2023-02-12T15:10:31.597Z,3228.00
2023-02-12T15:11:31.499Z,3184.00
2023-02-12T15:12:31.418Z,3156.00
2023-02-12T15:13:31.361Z,3128.00
2023-02-12T15:14:31.263Z,3116.00
2023-02-12T15:15:31.182Z,3096.00
2023-02-12T15:16:31.148Z,3084.00
2023-02-12T15:17:31.032Z,3056.00
2023-02-12T15:18:30.990Z,3040.00
2023-02-12T15:19:30.864Z,3020.00
2023-02-12T15:20:30.882Z,2980.00
2023-02-12T15:21:30.698Z,2956.00
2023-02-12T15:22:30.632Z,2928.00
2023-02-12T15:23:30.549Z,2932.00
2023-02-12T15:24:30.460Z,3032.00
2023-02-12T15:25:30.416Z,2992.00
2023-02-12T15:26:30.297Z,2860.00
2023-02-12T15:27:30.216Z,2768.00
2023-02-12T15:28:30.173Z,2732.00
2023-02-12T15:29:30.060Z,2680.00
2023-02-12T15:30:29.976Z,2652.00
2023-02-12T15:31:29.975Z,2564.00
2023-02-12T15:32:29.823Z,2460.00
2023-02-12T15:33:29.786Z,2396.00
2023-02-12T15:34:29.656Z,2356.00
2023-02-12T15:35:29.575Z,2320.00
2023-02-12T15:36:29.492Z,2272.00
2023-02-12T15:37:29.562Z,2220.00
2023-02-12T15:38:29.329Z,2156.00
2023-02-12T15:39:29.246Z,2088.00
2023-02-12T15:40:29.168Z,2028.00
2023-02-12T15:41:29.111Z,1968.00
2023-02-12T15:42:29.044Z,1916.00
2023-02-12T15:43:28.929Z,1868.00
2023-02-12T15:44:28.926Z,1816.00
2023-02-12T15:45:28.763Z,1760.00
2023-02-12T15:46:28.774Z,1716.00
2023-02-12T15:47:28.601Z,1684.00
2023-02-12T15:48:28.521Z,1656.00
2023-02-12T15:49:28.443Z,1628.00
2023-02-12T15:50:28.357Z,1600.00
2023-02-12T15:51:28.277Z,1572.00
2023-02-12T15:52:28.195Z,1544.00
2023-02-12T15:53:28.119Z,1520.00
2023-02-12T15:54:28.035Z,1488.00
2023-02-12T15:55:28.202Z,1452.00
2023-02-12T15:56:27.882Z,1408.00
2023-02-12T15:57:27.819Z,1372.00
2023-02-12T15:58:27.713Z,1340.00
2023-02-12T15:59:29.124Z,1312.00
2023-02-12T16:00:27.550Z,1284.00
2023-02-12T16:01:27.504Z,1256.00
2023-02-12T16:02:27.400Z,1220.00
2023-02-12T16:03:27.322Z,1180.00
2023-02-12T16:04:27.264Z,1136.00
2023-02-12T16:05:27.143Z,1092.00
2023-02-12T16:06:27.058Z,1052.00
2023-02-12T16:07:26.984Z,1016.00
2023-02-12T16:08:26.907Z,984.00
2023-02-12T16:09:26.815Z,944.00
2023-02-12T16:10:26.736Z,904.00
2023-02-12T16:11:26.656Z,868.00
2023-02-12T16:12:26.571Z,836.00
2023-02-12T16:13:26.512Z,812.00
2023-02-12T16:14:26.409Z,812.00
2023-02-12T16:15:26.334Z,784.00
2023-02-12T16:16:26.362Z,748.00
2023-02-12T16:17:26.176Z,788.00
2023-02-12T16:18:26.091Z,768.00
2023-02-12T16:19:26.013Z,732.00
2023-02-12T16:20:25.920Z,700.00
2023-02-12T16:21:25.841Z,664.00
2023-02-12T16:22:25.756Z,624.00
2023-02-12T16:23:25.679Z,564.00
2023-02-12T16:24:25.601Z,524.00
2023-02-12T16:25:25.511Z,492.00
2023-02-12T16:26:25.427Z,444.00
2023-02-12T16:27:25.398Z,392.00
2023-02-12T16:28:25.333Z,352.00
2023-02-12T16:29:25.210Z,312.00
2023-02-12T16:30:25.262Z,284.00
2023-02-12T16:31:25.081Z,256.00
2023-02-12T16:32:24.940Z,236.00
2023-02-12T16:33:24.857Z,212.00
2023-02-12T16:34:24.774Z,192.00
2023-02-12T16:35:24.693Z,176.00
2023-02-12T16:36:24.621Z,164.00
2023-02-12T16:37:24.529Z,152.00
2023-02-12T16:38:27.069Z,136.00
2023-02-12T16:39:24.367Z,120.00
2023-02-12T16:40:24.286Z,108.00
2023-02-12T16:41:24.202Z,96.00
2023-02-12T16:42:24.120Z,84.00
2023-02-12T16:43:24.063Z,72.00
2023-02-12T16:44:23.957Z,64.00
2023-02-12T16:45:24.058Z,56.00
2023-02-12T16:46:23.789Z,48.00
2023-02-12T16:47:23.708Z,40.00
2023-02-12T16:48:23.625Z,36.00
2023-02-12T16:49:23.558Z,36.00
2023-02-12T16:50:23.463Z,28.00
2023-02-12T16:51:23.378Z,24.00
2023-02-12T16:52:23.598Z,24.00
2023-02-12T16:53:23.218Z,16.00
2023-02-12T16:54:23.134Z,16.00
2023-02-12T16:55:23.048Z,12.00
2023-02-12T16:56:23.070Z,12.00
2023-02-12T16:57:22.888Z,12.00
2023-02-12T16:58:22.806Z,8.00
2023-02-12T16:59:22.721Z,8.00
2023-02-12T17:00:22.657Z,8.00
2023-02-12T17:01:22.581Z,8.00
2023-02-12T17:02:22.476Z,4.00
2023-02-12T17:03:22.413Z,4.00
2023-02-12T17:04:22.313Z,0.00
2023-02-12T17:05:22.233Z,0.00
2023-02-12T17:06:22.161Z,4.00
2023-02-12T17:07:22.215Z,0.00
2023-02-12T17:08:21.986Z,0.00
2023-02-12T17:09:21.951Z,4.00
2023-02-12T17:10:21.819Z,0.00
2023-02-12T17:11:21.735Z,0.00
2023-02-12T17:12:21.655Z,0.00
2023-02-12T17:13:21.572Z,0.00
2023-02-12T17:14:21.492Z,0.00
2023-02-12T17:15:21.404Z,0.00
2023-02-12T17:16:30.190Z,0.00
2023-02-12T17:17:21.299Z,0.00
2023-02-12T17:18:21.161Z,0.00
2023-02-12T17:19:21.858Z,0.00
2023-02-12T17:20:20.998Z,0.00
2023-02-12T17:21:20.914Z,0.00
2023-02-12T17:22:20.847Z,0.00
2023-02-12T17:23:20.752Z,0.00
2023-02-12T17:24:20.668Z,0.00
2023-02-12T17:25:20.584Z,0.00
2023-02-12T17:26:20.502Z,0.00
2023-02-12T17:27:20.772Z,0.00
2023-02-12T17:28:20.360Z,0.00
2023-02-12T17:29:20.260Z,0.00
2023-02-12T17:30:20.174Z,0.00
2023-02-12T17:31:20.145Z,0.00
2023-02-12T17:32:20.109Z,0.00
2023-02-12T17:33:19.953Z,0.00
2023-02-12T17:34:19.844Z,0.00
2023-02-12T17:35:19.764Z,0.00
2023-02-12T17:36:19.683Z,0.00
2023-02-12T17:37:19.609Z,0.00
2023-02-12T17:38:19.525Z,0.00
2023-02-12T17:39:19.454Z,0.00
2023-02-12T17:40:19.359Z,0.00
2023-02-12T17:41:19.274Z,0.00
2023-02-12T17:42:19.195Z,0.00
2023-02-12T17:43:19.109Z,0.00
2023-02-12T17:44:19.025Z,0.00
2023-02-12T17:45:18.945Z,0.00
2023-02-12T17:46:18.934Z,0.00
2023-02-12T17:47:18.774Z,0.00
2023-02-12T17:48:18.699Z,0.00
2023-02-12T17:49:18.691Z,0.00
2023-02-12T17:50:18.527Z,0.00
2023-02-12T17:51:18.461Z,0.00
2023-02-12T17:52:18.368Z,0.00
2023-02-12T17:53:18.287Z,0.00
2023-02-12T17:54:18.198Z,0.00
2023-02-12T17:55:18.116Z,0.00
2023-02-12T17:56:18.036Z,0.00
2023-02-12T17:57:17.952Z,0.00
2023-02-12T17:58:17.871Z,0.00
2023-02-12T17:59:17.791Z,0.00
2023-02-12T18:00:17.729Z,0.00
2023-02-12T18:01:17.691Z,0.00
2023-02-12T18:02:17.551Z,0.00
2023-02-12T18:03:17.459Z,0.00
2023-02-12T18:04:17.471Z,0.00
2023-02-12T18:05:17.316Z,0.00
2023-02-12T18:06:17.211Z,0.00
2023-02-12T18:07:17.128Z,0.00
2023-02-12T18:08:17.051Z,0.00
2023-02-12T18:09:16.960Z,0.00
2023-02-12T18:10:16.883Z,0.00
2023-02-12T18:11:16.796Z,0.00
2023-02-12T18:12:16.715Z,0.00
2023-02-12T18:13:16.645Z,0.00
2023-02-12T18:14:16.848Z,0.00
2023-02-12T18:15:16.464Z,0.00
2023-02-12T18:16:16.408Z,0.00
2023-02-12T18:17:16.303Z,0.00
2023-02-12T18:18:16.218Z,0.00
2023-02-12T18:19:16.132Z,0.00
2023-02-12T18:20:16.055Z,0.00
2023-02-12T18:21:15.998Z,0.00
2023-02-12T18:22:15.908Z,0.00
2023-02-12T18:23:15.813Z,0.00
2023-02-12T18:24:15.726Z,0.00
2023-02-12T18:25:17.359Z,0.00
2023-02-12T18:26:15.552Z,0.00
2023-02-12T18:27:15.479Z,0.00
2023-02-12T18:28:15.415Z,0.00
2023-02-12T18:29:15.308Z,0.00
2023-02-12T18:30:15.227Z,0.00
2023-02-12T18:31:15.248Z,0.00
2023-02-12T18:32:15.057Z,0.00
2023-02-12T18:33:14.976Z,0.00
2023-02-12T18:34:14.898Z,0.00
2023-02-12T18:35:14.810Z,0.00
2023-02-12T18:36:14.828Z,0.00
2023-02-12T18:37:14.916Z,0.00
2023-02-12T18:38:14.559Z,0.00
2023-02-12T18:39:14.533Z,0.00
2023-02-12T18:40:14.393Z,0.00
2023-02-12T18:41:14.318Z,0.00
2023-02-12T18:42:14.229Z,0.00
2023-02-12T18:43:14.153Z,0.00
2023-02-12T18:44:14.063Z,0.00
2023-02-12T18:45:14.032Z,0.00
2023-02-12T18:46:14.017Z,0.00
2023-02-12T18:47:13.818Z,0.00
2023-02-12T18:48:13.734Z,0.00
2023-02-12T18:49:13.649Z,0.00
2023-02-12T18:50:13.572Z,0.00
2023-02-12T18:51:13.489Z,0.00
2023-02-12T18:52:13.403Z,0.00
2023-02-12T18:53:13.381Z,0.00
2023-02-12T18:54:13.242Z,0.00
2023-02-12T18:55:13.154Z,0.00
2023-02-12T18:56:13.075Z,0.00
2023-02-12T18:57:13.008Z,0.00
2023-02-12T18:58:13.006Z,0.00
2023-02-12T18:59:12.827Z,0.00
2023-02-12T19:00:12.742Z,0.00
2023-02-12T19:01:12.743Z,0.00
2023-02-12T19:02:12.654Z,0.00
2023-02-12T19:03:12.498Z,0.00
2023-02-12T19:04:12.434Z,0.00
2023-02-12T19:05:12.327Z,0.00
2023-02-12T19:06:12.643Z,0.00
2023-02-12T19:07:12.162Z,0.00
2023-02-12T19:08:12.077Z,0.00
2023-02-12T19:09:12.271Z,0.00
2023-02-12T19:10:11.922Z,0.00
2023-02-12T19:11:12.895Z,0.00
2023-02-12T19:12:11.748Z,0.00
2023-02-12T19:13:11.665Z,0.00
2023-02-12T19:14:11.579Z,0.00
2023-02-12T19:15:11.498Z,0.00
2023-02-12T19:16:11.423Z,0.00
2023-02-12T19:17:11.330Z,0.00
2023-02-12T19:18:11.246Z,0.00
2023-02-12T19:19:11.169Z,0.00
2023-02-12T19:20:11.098Z,0.00
2023-02-12T19:21:11.000Z,0.00
2023-02-12T19:22:10.919Z,0.00
2023-02-12T19:23:10.833Z,0.00
2023-02-12T19:24:10.754Z,0.00
2023-02-12T19:25:11.044Z,0.00
2023-02-12T19:26:10.593Z,0.00
2023-02-12T19:27:10.506Z,0.00
2023-02-12T19:28:10.838Z,0.00
2023-02-12T19:29:10.388Z,0.00
2023-02-12T19:30:10.251Z,0.00
2023-02-12T19:31:10.296Z,0.00
2023-02-12T19:32:10.149Z,0.00
2023-02-12T19:33:10.005Z,0.00
2023-02-12T19:34:09.925Z,0.00
2023-02-12T19:35:09.842Z,0.00
2023-02-12T19:36:09.757Z,0.00
2023-02-12T19:37:11.526Z,0.00
2023-02-12T19:38:09.594Z,0.00
2023-02-12T19:39:09.510Z,0.00
2023-02-12T19:40:09.432Z,0.00
2023-02-12T19:41:09.621Z,0.00
2023-02-12T19:42:09.278Z,0.00
2023-02-12T19:43:09.188Z,0.00
2023-02-12T19:44:09.097Z,0.00
2023-02-12T19:45:09.017Z,0.00
2023-02-12T19:46:08.956Z,0.00
2023-02-12T19:47:08.852Z,0.00
2023-02-12T19:48:08.769Z,0.00
2023-02-12T19:49:08.698Z,0.00
2023-02-12T19:50:08.605Z,0.00
2023-02-12T19:51:08.523Z,0.00
2023-02-12T19:52:08.443Z,0.00
2023-02-12T19:53:08.360Z,0.00
2023-02-12T19:54:08.297Z,0.00
2023-02-12T19:55:08.192Z,0.00
2023-02-12T19:56:08.114Z,0.00
2023-02-12T19:57:08.049Z,0.00
2023-02-12T19:58:07.945Z,0.00
2023-02-12T19:59:07.859Z,0.00
2023-02-12T20:00:07.775Z,0.00
2023-02-12T20:01:07.756Z,0.00
2023-02-12T20:02:07.729Z,0.00
2023-02-12T20:03:07.529Z,0.00
2023-02-12T20:04:07.451Z,0.00
2023-02-12T20:05:07.371Z,0.00
2023-02-12T20:06:07.330Z,0.00
2023-02-12T20:07:07.200Z,0.00
2023-02-12T20:08:07.113Z,0.00
2023-02-12T20:09:07.036Z,0.00
2023-02-12T20:10:06.948Z,0.00
2023-02-12T20:11:06.869Z,0.00
2023-02-12T20:12:06.782Z,0.00
2023-02-12T20:13:06.727Z,0.00
2023-02-12T20:14:06.623Z,0.00
2023-02-12T20:15:06.536Z,0.00
2023-02-12T20:16:06.529Z,0.00
2023-02-12T20:17:06.375Z,0.00
2023-02-12T20:18:06.302Z,0.00
2023-02-12T20:19:06.204Z,0.00
2023-02-12T20:20:06.124Z,0.00
2023-02-12T20:21:06.046Z,0.00
2023-02-12T20:22:05.960Z,0.00
2023-02-12T20:23:05.876Z,0.00
2023-02-12T20:24:05.801Z,0.00
2023-02-12T20:25:05.716Z,0.00
2023-02-12T20:26:05.626Z,0.00
2023-02-12T20:27:05.547Z,0.00
2023-02-12T20:28:05.489Z,0.00
2023-02-12T20:29:05.733Z,0.00
2023-02-12T20:30:05.296Z,0.00
2023-02-12T20:31:05.294Z,0.00
2023-02-12T20:32:05.189Z,0.00
2023-02-12T20:33:05.045Z,0.00
2023-02-12T20:34:04.983Z,0.00
2023-02-12T20:35:04.879Z,0.00
2023-02-12T20:36:04.800Z,0.00
2023-02-12T20:37:04.715Z,0.00
2023-02-12T20:38:04.639Z,0.00
2023-02-12T20:39:04.549Z,0.00
2023-02-12T20:40:04.468Z,0.00
2023-02-12T20:41:04.390Z,0.00
2023-02-12T20:42:04.301Z,0.00
2023-02-12T20:43:04.220Z,0.00
2023-02-12T20:44:04.143Z,0.00
2023-02-12T20:45:04.084Z,0.00
2023-02-12T20:46:03.971Z,0.00
2023-02-12T20:47:03.893Z,0.00
2023-02-12T20:48:04.055Z,0.00
2023-02-12T20:49:03.722Z,0.00
2023-02-12T20:50:03.635Z,0.00
2023-02-12T20:51:03.554Z,0.00
2023-02-12T20:52:03.626Z,0.00
2023-02-12T20:53:03.392Z,0.00
2023-02-12T20:54:03.305Z,0.00
2023-02-12T20:55:03.224Z,0.00
2023-02-12T20:56:03.140Z,0.00
2023-02-12T20:57:03.106Z,0.00
2023-02-12T20:58:02.973Z,0.00
2023-02-12T20:59:02.890Z,0.00
2023-02-12T21:00:02.914Z,0.00
2023-02-12T21:01:03.047Z,0.00
2023-02-12T21:02:02.717Z,0.00
2023-02-12T21:03:02.606Z,0.00
2023-02-12T21:04:02.474Z,0.00
2023-02-12T21:05:02.447Z,0.00
2023-02-12T21:06:02.309Z,0.00
2023-02-12T21:07:02.234Z,0.00
2023-02-12T21:08:02.145Z,0.00
2023-02-12T21:09:02.059Z,0.00
2023-02-12T21:10:01.973Z,0.00
2023-02-12T21:11:01.914Z,0.00
2023-02-12T21:12:01.815Z,0.00
2023-02-12T21:13:01.734Z,0.00
2023-02-12T21:14:20.275Z,0.00
2023-02-12T21:15:01.557Z,0.00
2023-02-12T21:16:01.574Z,0.00
2023-02-12T21:17:01.412Z,0.00
2023-02-12T21:18:01.301Z,0.00
2023-02-12T21:19:01.220Z,0.00
2023-02-12T21:20:01.156Z,0.00
2023-02-12T21:21:01.059Z,0.00
2023-02-12T21:22:01.267Z,0.00
2023-02-12T21:23:00.890Z,0.00
2023-02-12T21:24:00.799Z,0.00
2023-02-12T21:25:00.746Z,0.00
2023-02-12T21:26:00.638Z,0.00
2023-02-12T21:27:00.550Z,0.00
2023-02-12T21:28:00.514Z,0.00
2023-02-12T21:29:00.382Z,0.00
2023-02-12T21:30:00.300Z,0.00
2023-02-12T21:31:00.470Z,0.00
2023-02-12T21:32:00.275Z,0.00
2023-02-12T21:33:00.089Z,0.00
2023-02-12T21:33:59.965Z,0.00
2023-02-12T21:34:59.877Z,0.00
2023-02-12T21:35:59.793Z,0.00
2023-02-12T21:36:59.709Z,0.00
2023-02-12T21:37:59.623Z,0.00
2023-02-12T21:38:59.537Z,0.00
2023-02-12T21:39:59.455Z,0.00
2023-02-12T21:40:59.370Z,0.00
2023-02-12T21:41:59.287Z,0.00
2023-02-12T21:42:59.198Z,0.00
2023-02-12T21:43:59.365Z,0.00
2023-02-12T21:44:59.040Z,0.00
2023-02-12T21:45:58.990Z,0.00
2023-02-12T21:46:58.887Z,0.00
2023-02-12T21:47:58.784Z,0.00
2023-02-12T21:48:58.762Z,0.00
2023-02-12T21:49:58.621Z,0.00
2023-02-12T21:50:58.827Z,0.00
2023-02-12T21:51:58.441Z,0.00
2023-02-12T21:52:58.354Z,0.00
2023-02-12T21:53:58.262Z,0.00
2023-02-12T21:55:56.004Z,0.00
2023-02-12T21:56:55.588Z,0.00
2023-02-12T23:21:08.770Z,0.00
2023-02-12T23:22:08.664Z,0.00
2023-02-12T23:23:08.578Z,0.00
2023-02-12T23:24:08.493Z,0.00
2023-02-12T23:25:08.708Z,0.00
2023-02-12T23:26:08.326Z,0.00
2023-02-12T23:27:08.238Z,0.00
2023-02-12T23:28:08.239Z,0.00
2023-02-12T23:29:08.068Z,0.00
2023-02-12T23:30:07.983Z,0.00
2023-02-12T23:31:08.183Z,0.00
2023-02-12T23:32:07.820Z,0.00
2023-02-12T23:33:07.734Z,0.00
2023-02-12T23:34:07.640Z,0.00
2023-02-12T23:35:07.554Z,0.00
2023-02-12T23:36:07.481Z,0.00
2023-02-12T23:37:07.404Z,0.00
2023-02-12T23:38:07.346Z,0.00
2023-02-12T23:39:07.220Z,0.00
2023-02-12T23:40:07.125Z,0.00
2023-02-12T23:41:07.043Z,0.00
2023-02-12T23:42:06.950Z,0.00
2023-02-12T23:43:06.863Z,0.00
2023-02-12T23:44:06.779Z,0.00
2023-02-12T23:45:06.691Z,0.00
2023-02-12T23:46:06.731Z,0.00
2023-02-12T23:47:06.516Z,0.00
2023-02-12T23:48:06.432Z,0.00
2023-02-12T23:49:06.347Z,0.00
2023-02-12T23:50:06.263Z,0.00
2023-02-12T23:51:06.183Z,0.00
2023-02-12T23:52:06.093Z,0.00
2023-02-12T23:53:06.030Z,0.00
2023-02-12T23:54:06.169Z,0.00
2023-02-12T23:55:05.823Z,0.00
2023-02-12T23:56:05.739Z,0.00
2023-02-12T23:57:05.655Z,0.00
2023-02-12T23:58:05.561Z,0.00
2023-02-12T23:59:05.852Z,0.00
